sensor_id;sensor_type;location;lat;lon;timestamp;temperature;humidity
24802;DHT22;12898;50.520;12.152;2023-03-05T00:01:12;1.30;99.90
24802;DHT22;12898;50.520;12.152;2023-03-05T00:03:43;1.20;99.90
24802;DHT22;12898;50.520;12.152;2023-03-05T00:06:09;1.20;99.90
24802;DHT22;12898;50.520;12.152;2023-03-05T00:08:34;1.30;99.90
24802;DHT22;12898;50.520;12.152;2023-03-05T00:11:06;1.20;99.90
24802;DHT22;12898;50.520;12.152;2023-03-05T00:13:34;1.20;99.90
24802;DHT22;12898;50.520;12.152;2023-03-05T00:16:04;1.20;99.90
24802;DHT22;12898;50.520;12.152;2023-03-05T00:18:32;1.30;99.90
24802;DHT22;12898;50.520;12.152;2023-03-05T00:20:57;1.30;99.90
24802;DHT22;12898;50.520;12.152;2023-03-05T00:23:23;1.20;99.90
24802;DHT22;12898;50.520;12.152;2023-03-05T00:25:49;1.20;99.90
24802;DHT22;12898;50.520;12.152;2023-03-05T00:28:15;1.20;99.90
24802;DHT22;12898;50.520;12.152;2023-03-05T00:30:40;1.20;99.90
24802;DHT22;12898;50.520;12.152;2023-03-05T00:33:07;1.20;99.90
24802;DHT22;12898;50.520;12.152;2023-03-05T00:35:41;1.20;99.90
24802;DHT22;12898;50.520;12.152;2023-03-05T00:38:08;1.20;99.90
24802;DHT22;12898;50.520;12.152;2023-03-05T00:40:36;1.10;99.90
24802;DHT22;12898;50.520;12.152;2023-03-05T00:43:03;1.10;99.90
24802;DHT22;12898;50.520;12.152;2023-03-05T00:45:28;1.10;99.90
24802;DHT22;12898;50.520;12.152;2023-03-05T00:47:54;1.10;99.90
24802;DHT22;12898;50.520;12.152;2023-03-05T00:50:20;1.10;99.90
24802;DHT22;12898;50.520;12.152;2023-03-05T00:52:45;1.10;99.90
24802;DHT22;12898;50.520;12.152;2023-03-05T00:55:11;1.10;99.90
24802;DHT22;12898;50.520;12.152;2023-03-05T00:57:37;1.10;99.90
24802;DHT22;12898;50.520;12.152;2023-03-05T01:00:04;1.10;99.90
24802;DHT22;12898;50.520;12.152;2023-03-05T01:02:30;1.10;99.90
24802;DHT22;12898;50.520;12.152;2023-03-05T01:04:56;1.00;99.90
24802;DHT22;12898;50.520;12.152;2023-03-05T01:07:22;1.10;99.90
24802;DHT22;12898;50.520;12.152;2023-03-05T01:09:47;1.00;99.90
24802;DHT22;12898;50.520;12.152;2023-03-05T01:12:13;1.00;99.90
24802;DHT22;12898;50.520;12.152;2023-03-05T01:14:39;1.00;99.90
24802;DHT22;12898;50.520;12.152;2023-03-05T01:17:04;1.00;99.90
24802;DHT22;12898;50.520;12.152;2023-03-05T01:19:30;1.00;99.90
24802;DHT22;12898;50.520;12.152;2023-03-05T01:21:56;1.00;99.90
24802;DHT22;12898;50.520;12.152;2023-03-05T01:24:22;1.00;99.90
24802;DHT22;12898;50.520;12.152;2023-03-05T01:26:47;1.00;99.90
24802;DHT22;12898;50.520;12.152;2023-03-05T01:29:14;1.00;99.90
24802;DHT22;12898;50.520;12.152;2023-03-05T01:31:39;1.00;99.90
24802;DHT22;12898;50.520;12.152;2023-03-05T01:34:06;1.00;99.90
24802;DHT22;12898;50.520;12.152;2023-03-05T01:36:31;1.00;99.90
24802;DHT22;12898;50.520;12.152;2023-03-05T01:38:57;1.00;99.90
24802;DHT22;12898;50.520;12.152;2023-03-05T01:41:23;1.00;99.90
24802;DHT22;12898;50.520;12.152;2023-03-05T01:43:50;1.00;99.90
24802;DHT22;12898;50.520;12.152;2023-03-05T01:46:34;1.00;99.90
24802;DHT22;12898;50.520;12.152;2023-03-05T01:49:20;1.00;99.90
24802;DHT22;12898;50.520;12.152;2023-03-05T01:57:36;0.90;99.90
24802;DHT22;12898;50.520;12.152;2023-03-05T02:00:28;0.90;99.90
24802;DHT22;12898;50.520;12.152;2023-03-05T02:02:56;0.90;99.90
24802;DHT22;12898;50.520;12.152;2023-03-05T02:05:29;0.90;99.90
24802;DHT22;12898;50.520;12.152;2023-03-05T02:07:58;0.90;99.90
24802;DHT22;12898;50.520;12.152;2023-03-05T02:10:28;0.90;99.90
24802;DHT22;12898;50.520;12.152;2023-03-05T02:13:02;0.90;99.90
24802;DHT22;12898;50.520;12.152;2023-03-05T02:15:31;0.90;99.90
24802;DHT22;12898;50.520;12.152;2023-03-05T02:17:57;0.90;99.90
24802;DHT22;12898;50.520;12.152;2023-03-05T02:20:25;0.90;99.90
24802;DHT22;12898;50.520;12.152;2023-03-05T02:22:53;0.90;99.90
24802;DHT22;12898;50.520;12.152;2023-03-05T02:25:22;0.90;99.90
24802;DHT22;12898;50.520;12.152;2023-03-05T02:28:12;0.80;99.90
24802;DHT22;12898;50.520;12.152;2023-03-05T02:30:41;0.80;99.90
24802;DHT22;12898;50.520;12.152;2023-03-05T02:33:07;0.80;99.90
24802;DHT22;12898;50.520;12.152;2023-03-05T02:35:32;0.80;99.90
24802;DHT22;12898;50.520;12.152;2023-03-05T02:37:59;0.80;99.90
24802;DHT22;12898;50.520;12.152;2023-03-05T02:40:25;0.80;99.90
24802;DHT22;12898;50.520;12.152;2023-03-05T02:42:51;0.80;99.90
24802;DHT22;12898;50.520;12.152;2023-03-05T02:45:17;0.80;99.90
24802;DHT22;12898;50.520;12.152;2023-03-05T02:47:43;0.80;99.90
24802;DHT22;12898;50.520;12.152;2023-03-05T02:50:10;0.70;99.90
24802;DHT22;12898;50.520;12.152;2023-03-05T02:52:36;0.70;99.90
24802;DHT22;12898;50.520;12.152;2023-03-05T02:55:03;0.70;99.90
24802;DHT22;12898;50.520;12.152;2023-03-05T02:57:29;0.70;99.90
24802;DHT22;12898;50.520;12.152;2023-03-05T02:59:54;0.70;99.90
24802;DHT22;12898;50.520;12.152;2023-03-05T03:02:20;0.70;99.90
24802;DHT22;12898;50.520;12.152;2023-03-05T03:04:46;0.70;99.90
24802;DHT22;12898;50.520;12.152;2023-03-05T03:07:13;0.70;99.90
24802;DHT22;12898;50.520;12.152;2023-03-05T03:09:39;0.70;99.90
24802;DHT22;12898;50.520;12.152;2023-03-05T03:12:09;0.70;99.90
24802;DHT22;12898;50.520;12.152;2023-03-05T03:14:37;0.70;99.90
24802;DHT22;12898;50.520;12.152;2023-03-05T03:17:08;0.70;99.90
24802;DHT22;12898;50.520;12.152;2023-03-05T03:19:36;0.70;99.90
24802;DHT22;12898;50.520;12.152;2023-03-05T03:22:02;0.60;99.90
24802;DHT22;12898;50.520;12.152;2023-03-05T03:24:29;0.70;99.90
24802;DHT22;12898;50.520;12.152;2023-03-05T03:26:55;0.60;99.90
24802;DHT22;12898;50.520;12.152;2023-03-05T03:29:21;0.60;99.90
24802;DHT22;12898;50.520;12.152;2023-03-05T03:31:47;0.60;99.90
24802;DHT22;12898;50.520;12.152;2023-03-05T03:34:14;0.60;99.90
24802;DHT22;12898;50.520;12.152;2023-03-05T03:36:44;0.60;99.90
24802;DHT22;12898;50.520;12.152;2023-03-05T03:39:10;0.50;99.90
24802;DHT22;12898;50.520;12.152;2023-03-05T03:41:41;0.50;99.90
24802;DHT22;12898;50.520;12.152;2023-03-05T03:44:08;0.50;99.90
24802;DHT22;12898;50.520;12.152;2023-03-05T03:46:35;0.50;99.90
24802;DHT22;12898;50.520;12.152;2023-03-05T03:49:02;0.50;99.90
24802;DHT22;12898;50.520;12.152;2023-03-05T03:51:28;0.50;99.90
24802;DHT22;12898;50.520;12.152;2023-03-05T03:53:54;0.50;99.90
24802;DHT22;12898;50.520;12.152;2023-03-05T03:56:20;0.50;99.90
24802;DHT22;12898;50.520;12.152;2023-03-05T03:58:49;0.50;99.90
24802;DHT22;12898;50.520;12.152;2023-03-05T04:01:16;0.50;99.90
24802;DHT22;12898;50.520;12.152;2023-03-05T04:03:42;0.50;99.90
24802;DHT22;12898;50.520;12.152;2023-03-05T04:06:08;0.50;99.90
24802;DHT22;12898;50.520;12.152;2023-03-05T04:08:34;0.40;99.90
24802;DHT22;12898;50.520;12.152;2023-03-05T04:11:01;0.40;99.90
24802;DHT22;12898;50.520;12.152;2023-03-05T04:13:27;0.50;99.90
24802;DHT22;12898;50.520;12.152;2023-03-05T04:15:53;0.50;99.90
24802;DHT22;12898;50.520;12.152;2023-03-05T04:18:19;0.50;99.90
24802;DHT22;12898;50.520;12.152;2023-03-05T04:20:45;0.50;99.90
24802;DHT22;12898;50.520;12.152;2023-03-05T04:23:10;0.50;99.90
24802;DHT22;12898;50.520;12.152;2023-03-05T04:25:36;0.50;99.90
24802;DHT22;12898;50.520;12.152;2023-03-05T04:28:02;0.50;99.90
24802;DHT22;12898;50.520;12.152;2023-03-05T04:30:27;0.40;99.90
24802;DHT22;12898;50.520;12.152;2023-03-05T04:32:53;0.40;99.90
24802;DHT22;12898;50.520;12.152;2023-03-05T04:35:19;0.40;99.90
24802;DHT22;12898;50.520;12.152;2023-03-05T04:37:45;0.40;99.90
24802;DHT22;12898;50.520;12.152;2023-03-05T04:40:11;0.40;99.90
24802;DHT22;12898;50.520;12.152;2023-03-05T04:42:37;0.40;99.90
24802;DHT22;12898;50.520;12.152;2023-03-05T04:45:04;0.40;99.90
24802;DHT22;12898;50.520;12.152;2023-03-05T04:47:31;0.40;99.90
24802;DHT22;12898;50.520;12.152;2023-03-05T04:49:56;0.30;99.90
24802;DHT22;12898;50.520;12.152;2023-03-05T04:52:22;0.40;99.90
24802;DHT22;12898;50.520;12.152;2023-03-05T04:54:48;0.40;99.90
24802;DHT22;12898;50.520;12.152;2023-03-05T04:57:14;0.30;99.90
24802;DHT22;12898;50.520;12.152;2023-03-05T04:59:39;0.40;99.90
24802;DHT22;12898;50.520;12.152;2023-03-05T05:02:05;0.30;99.90
24802;DHT22;12898;50.520;12.152;2023-03-05T05:04:31;0.30;99.90
24802;DHT22;12898;50.520;12.152;2023-03-05T05:06:58;0.30;99.90
24802;DHT22;12898;50.520;12.152;2023-03-05T05:09:24;0.30;99.90
24802;DHT22;12898;50.520;12.152;2023-03-05T05:11:50;0.30;99.90
24802;DHT22;12898;50.520;12.152;2023-03-05T05:14:17;0.30;99.90
24802;DHT22;12898;50.520;12.152;2023-03-05T05:16:42;0.30;99.90
24802;DHT22;12898;50.520;12.152;2023-03-05T05:19:08;0.30;99.90
24802;DHT22;12898;50.520;12.152;2023-03-05T05:21:34;0.30;99.90
24802;DHT22;12898;50.520;12.152;2023-03-05T05:23:59;0.30;99.90
24802;DHT22;12898;50.520;12.152;2023-03-05T05:26:25;0.30;99.90
24802;DHT22;12898;50.520;12.152;2023-03-05T05:28:52;0.20;99.90
24802;DHT22;12898;50.520;12.152;2023-03-05T05:31:18;0.20;99.90
24802;DHT22;12898;50.520;12.152;2023-03-05T05:33:44;0.30;99.90
24802;DHT22;12898;50.520;12.152;2023-03-05T05:36:13;0.20;99.90
24802;DHT22;12898;50.520;12.152;2023-03-05T05:38:39;0.20;99.90
24802;DHT22;12898;50.520;12.152;2023-03-05T05:41:11;0.20;99.90
24802;DHT22;12898;50.520;12.152;2023-03-05T05:43:38;0.20;99.90
24802;DHT22;12898;50.520;12.152;2023-03-05T05:46:06;0.20;99.90
24802;DHT22;12898;50.520;12.152;2023-03-05T05:48:34;0.20;99.90
24802;DHT22;12898;50.520;12.152;2023-03-05T05:51:05;0.20;99.90
24802;DHT22;12898;50.520;12.152;2023-03-05T05:53:32;0.20;99.90
24802;DHT22;12898;50.520;12.152;2023-03-05T05:55:58;0.20;99.90
24802;DHT22;12898;50.520;12.152;2023-03-05T05:58:24;0.20;99.90
24802;DHT22;12898;50.520;12.152;2023-03-05T06:00:50;0.20;99.90
24802;DHT22;12898;50.520;12.152;2023-03-05T06:03:15;0.30;99.90
24802;DHT22;12898;50.520;12.152;2023-03-05T06:05:42;0.30;99.90
24802;DHT22;12898;50.520;12.152;2023-03-05T06:08:08;0.40;99.90
24802;DHT22;12898;50.520;12.152;2023-03-05T06:10:34;0.40;99.90
24802;DHT22;12898;50.520;12.152;2023-03-05T06:12:59;0.40;99.90
24802;DHT22;12898;50.520;12.152;2023-03-05T06:15:25;0.40;99.90
24802;DHT22;12898;50.520;12.152;2023-03-05T06:17:50;0.40;99.90
24802;DHT22;12898;50.520;12.152;2023-03-05T06:20:17;0.40;99.90
24802;DHT22;12898;50.520;12.152;2023-03-05T06:22:43;0.40;99.90
24802;DHT22;12898;50.520;12.152;2023-03-05T06:25:09;0.40;99.90
24802;DHT22;12898;50.520;12.152;2023-03-05T06:27:36;0.40;99.90
24802;DHT22;12898;50.520;12.152;2023-03-05T06:30:02;0.40;99.90
24802;DHT22;12898;50.520;12.152;2023-03-05T06:32:29;0.40;99.90
24802;DHT22;12898;50.520;12.152;2023-03-05T06:34:55;0.40;99.90
24802;DHT22;12898;50.520;12.152;2023-03-05T06:37:20;0.50;99.90
24802;DHT22;12898;50.520;12.152;2023-03-05T06:39:46;0.50;99.90
24802;DHT22;12898;50.520;12.152;2023-03-05T06:42:12;0.50;99.90
24802;DHT22;12898;50.520;12.152;2023-03-05T06:44:41;0.50;99.90
24802;DHT22;12898;50.520;12.152;2023-03-05T06:47:07;0.50;99.90
24802;DHT22;12898;50.520;12.152;2023-03-05T06:49:35;0.50;99.90
24802;DHT22;12898;50.520;12.152;2023-03-05T06:52:02;0.60;99.90
24802;DHT22;12898;50.520;12.152;2023-03-05T06:54:28;0.60;99.90
24802;DHT22;12898;50.520;12.152;2023-03-05T06:56:54;0.60;99.90
24802;DHT22;12898;50.520;12.152;2023-03-05T06:59:20;0.60;99.90
24802;DHT22;12898;50.520;12.152;2023-03-05T07:01:46;0.70;99.90
24802;DHT22;12898;50.520;12.152;2023-03-05T07:04:12;0.70;99.90
24802;DHT22;12898;50.520;12.152;2023-03-05T07:06:39;0.70;99.90
24802;DHT22;12898;50.520;12.152;2023-03-05T07:09:12;0.80;99.90
24802;DHT22;12898;50.520;12.152;2023-03-05T07:11:39;0.80;99.90
24802;DHT22;12898;50.520;12.152;2023-03-05T07:14:05;0.90;99.90
24802;DHT22;12898;50.520;12.152;2023-03-05T07:16:32;1.00;99.90
24802;DHT22;12898;50.520;12.152;2023-03-05T07:19:00;1.10;99.90
24802;DHT22;12898;50.520;12.152;2023-03-05T07:21:32;1.10;99.90
24802;DHT22;12898;50.520;12.152;2023-03-05T07:24:00;1.20;99.90
24802;DHT22;12898;50.520;12.152;2023-03-05T07:26:27;1.30;99.90
24802;DHT22;12898;50.520;12.152;2023-03-05T07:28:53;1.30;99.90
24802;DHT22;12898;50.520;12.152;2023-03-05T07:31:21;1.40;99.90
24802;DHT22;12898;50.520;12.152;2023-03-05T07:33:51;1.50;99.90
24802;DHT22;12898;50.520;12.152;2023-03-05T07:36:17;1.50;99.90
24802;DHT22;12898;50.520;12.152;2023-03-05T07:38:43;1.50;99.90
24802;DHT22;12898;50.520;12.152;2023-03-05T07:41:11;1.60;99.90
24802;DHT22;12898;50.520;12.152;2023-03-05T07:43:38;1.60;99.90
24802;DHT22;12898;50.520;12.152;2023-03-05T07:46:10;1.70;99.90
24802;DHT22;12898;50.520;12.152;2023-03-05T07:48:36;1.80;99.90
24802;DHT22;12898;50.520;12.152;2023-03-05T07:51:04;1.90;99.90
24802;DHT22;12898;50.520;12.152;2023-03-05T07:53:31;2.00;99.90
24802;DHT22;12898;50.520;12.152;2023-03-05T07:55:57;2.00;99.90
24802;DHT22;12898;50.520;12.152;2023-03-05T07:58:23;2.10;99.90
24802;DHT22;12898;50.520;12.152;2023-03-05T08:00:49;2.00;99.90
24802;DHT22;12898;50.520;12.152;2023-03-05T08:03:15;2.00;99.90
24802;DHT22;12898;50.520;12.152;2023-03-05T08:05:41;2.00;99.90
24802;DHT22;12898;50.520;12.152;2023-03-05T08:08:07;2.00;99.90
24802;DHT22;12898;50.520;12.152;2023-03-05T08:10:34;2.00;99.90
24802;DHT22;12898;50.520;12.152;2023-03-05T08:13:01;2.00;99.90
24802;DHT22;12898;50.520;12.152;2023-03-05T08:15:26;2.10;99.90
24802;DHT22;12898;50.520;12.152;2023-03-05T08:17:52;2.10;99.90
24802;DHT22;12898;50.520;12.152;2023-03-05T08:20:18;2.10;99.90
24802;DHT22;12898;50.520;12.152;2023-03-05T08:22:45;2.20;99.90
24802;DHT22;12898;50.520;12.152;2023-03-05T08:25:11;2.10;99.90
24802;DHT22;12898;50.520;12.152;2023-03-05T08:27:39;2.20;99.90
24802;DHT22;12898;50.520;12.152;2023-03-05T08:30:07;2.10;99.90
24802;DHT22;12898;50.520;12.152;2023-03-05T08:32:35;2.10;99.90
24802;DHT22;12898;50.520;12.152;2023-03-05T08:35:01;2.10;99.90
24802;DHT22;12898;50.520;12.152;2023-03-05T08:37:29;2.10;99.90
24802;DHT22;12898;50.520;12.152;2023-03-05T08:39:55;2.00;99.90
24802;DHT22;12898;50.520;12.152;2023-03-05T08:42:21;2.00;99.90
24802;DHT22;12898;50.520;12.152;2023-03-05T08:44:48;2.00;99.90
24802;DHT22;12898;50.520;12.152;2023-03-05T08:47:14;2.00;99.90
24802;DHT22;12898;50.520;12.152;2023-03-05T08:49:39;2.00;99.90
24802;DHT22;12898;50.520;12.152;2023-03-05T08:52:05;2.00;99.90
24802;DHT22;12898;50.520;12.152;2023-03-05T08:54:32;1.90;99.90
24802;DHT22;12898;50.520;12.152;2023-03-05T08:56:58;1.90;99.90
24802;DHT22;12898;50.520;12.152;2023-03-05T08:59:24;1.90;99.90
24802;DHT22;12898;50.520;12.152;2023-03-05T09:01:49;2.00;99.90
24802;DHT22;12898;50.520;12.152;2023-03-05T09:04:15;2.10;99.90
24802;DHT22;12898;50.520;12.152;2023-03-05T09:06:41;2.20;99.90
24802;DHT22;12898;50.520;12.152;2023-03-05T09:09:07;2.20;99.90
24802;DHT22;12898;50.520;12.152;2023-03-05T09:11:34;2.20;99.90
24802;DHT22;12898;50.520;12.152;2023-03-05T09:14:02;2.20;99.90
24802;DHT22;12898;50.520;12.152;2023-03-05T09:16:28;2.20;99.90
24802;DHT22;12898;50.520;12.152;2023-03-05T09:18:54;2.30;99.90
24802;DHT22;12898;50.520;12.152;2023-03-05T09:21:19;2.30;99.90
24802;DHT22;12898;50.520;12.152;2023-03-05T09:23:45;2.40;99.90
24802;DHT22;12898;50.520;12.152;2023-03-05T09:26:12;2.50;99.90
24802;DHT22;12898;50.520;12.152;2023-03-05T09:28:40;2.50;99.90
24802;DHT22;12898;50.520;12.152;2023-03-05T09:31:07;2.60;99.90
24802;DHT22;12898;50.520;12.152;2023-03-05T09:33:34;2.70;99.90
24802;DHT22;12898;50.520;12.152;2023-03-05T09:36:01;2.70;99.90
24802;DHT22;12898;50.520;12.152;2023-03-05T09:38:28;2.80;99.90
24802;DHT22;12898;50.520;12.152;2023-03-05T09:41:01;2.80;99.90
24802;DHT22;12898;50.520;12.152;2023-03-05T09:51:41;3.20;99.90
24802;DHT22;12898;50.520;12.152;2023-03-05T09:54:46;3.30;99.90
24802;DHT22;12898;50.520;12.152;2023-03-05T09:57:20;3.40;99.90
24802;DHT22;12898;50.520;12.152;2023-03-05T09:59:56;3.40;99.90
24802;DHT22;12898;50.520;12.152;2023-03-05T10:02:30;3.40;99.90
24802;DHT22;12898;50.520;12.152;2023-03-05T10:08:08;3.30;99.90
24802;DHT22;12898;50.520;12.152;2023-03-05T10:10:51;3.20;99.90
24802;DHT22;12898;50.520;12.152;2023-03-05T10:13:26;3.30;99.90
24802;DHT22;12898;50.520;12.152;2023-03-05T10:18:36;3.30;99.90
24802;DHT22;12898;50.520;12.152;2023-03-05T10:21:30;3.20;99.90
24802;DHT22;12898;50.520;12.152;2023-03-05T10:23:58;3.10;99.90
24802;DHT22;12898;50.520;12.152;2023-03-05T10:35:04;2.90;99.90
24802;DHT22;12898;50.520;12.152;2023-03-05T10:44:17;2.80;99.90
24802;DHT22;12898;50.520;12.152;2023-03-05T10:46:50;2.70;99.90
24802;DHT22;12898;50.520;12.152;2023-03-05T10:49:24;2.60;99.90
24802;DHT22;12898;50.520;12.152;2023-03-05T10:52:12;2.70;99.90
24802;DHT22;12898;50.520;12.152;2023-03-05T10:54:40;2.80;99.90
24802;DHT22;12898;50.520;12.152;2023-03-05T10:57:22;3.00;99.90
24802;DHT22;12898;50.520;12.152;2023-03-05T11:00:20;3.30;99.90
24802;DHT22;12898;50.520;12.152;2023-03-05T11:03:08;3.40;99.90
24802;DHT22;12898;50.520;12.152;2023-03-05T11:05:49;3.60;99.90
24802;DHT22;12898;50.520;12.152;2023-03-05T11:08:36;3.70;99.90
24802;DHT22;12898;50.520;12.152;2023-03-05T11:13:36;3.80;99.90
24802;DHT22;12898;50.520;12.152;2023-03-05T11:16:21;4.00;99.90
24802;DHT22;12898;50.520;12.152;2023-03-05T11:18:49;4.10;99.90
24802;DHT22;12898;50.520;12.152;2023-03-05T11:21:23;4.20;99.90
24802;DHT22;12898;50.520;12.152;2023-03-05T11:24:11;4.20;99.90
24802;DHT22;12898;50.520;12.152;2023-03-05T11:26:53;4.30;99.90
24802;DHT22;12898;50.520;12.152;2023-03-05T11:29:20;4.30;99.90
24802;DHT22;12898;50.520;12.152;2023-03-05T11:31:48;4.30;99.90
24802;DHT22;12898;50.520;12.152;2023-03-05T11:37:03;4.60;99.90
24802;DHT22;12898;50.520;12.152;2023-03-05T11:39:32;4.70;99.90
24802;DHT22;12898;50.520;12.152;2023-03-05T11:42:19;4.60;99.90
24802;DHT22;12898;50.520;12.152;2023-03-05T11:44:51;4.60;99.90
24802;DHT22;12898;50.520;12.152;2023-03-05T11:53:12;4.90;99.90
24802;DHT22;12898;50.520;12.152;2023-03-05T11:55:44;5.00;99.90
24802;DHT22;12898;50.520;12.152;2023-03-05T11:58:27;5.00;99.90
24802;DHT22;12898;50.520;12.152;2023-03-05T12:00:58;4.90;97.30
24802;DHT22;12898;50.520;12.152;2023-03-05T12:03:34;4.90;98.50
24802;DHT22;12898;50.520;12.152;2023-03-05T12:06:07;4.90;99.50
24802;DHT22;12898;50.520;12.152;2023-03-05T12:08:43;5.10;98.80
24802;DHT22;12898;50.520;12.152;2023-03-05T12:11:21;5.20;98.10
24802;DHT22;12898;50.520;12.152;2023-03-05T12:13:57;5.20;97.30
24802;DHT22;12898;50.520;12.152;2023-03-05T12:22:25;4.90;96.30
24802;DHT22;12898;50.520;12.152;2023-03-05T12:25:44;4.60;97.50
24802;DHT22;12898;50.520;12.152;2023-03-05T12:28:16;4.30;98.10
24802;DHT22;12898;50.520;12.152;2023-03-05T12:31:27;4.10;98.50
24802;DHT22;12898;50.520;12.152;2023-03-05T12:33:53;4.00;98.90
24802;DHT22;12898;50.520;12.152;2023-03-05T12:48:32;3.40;99.90
24802;DHT22;12898;50.520;12.152;2023-03-05T12:53:09;3.50;99.90
24802;DHT22;12898;50.520;12.152;2023-03-05T13:03:44;4.00;99.90
24802;DHT22;12898;50.520;12.152;2023-03-05T13:06:26;4.00;99.90
24802;DHT22;12898;50.520;12.152;2023-03-05T13:11:46;4.00;99.90
24802;DHT22;12898;50.520;12.152;2023-03-05T13:14:34;3.90;99.90
24802;DHT22;12898;50.520;12.152;2023-03-05T13:17:28;3.90;99.90
24802;DHT22;12898;50.520;12.152;2023-03-05T13:19:55;3.90;99.90
24802;DHT22;12898;50.520;12.152;2023-03-05T13:22:21;3.90;99.90
24802;DHT22;12898;50.520;12.152;2023-03-05T13:27:37;4.00;99.50
24802;DHT22;12898;50.520;12.152;2023-03-05T13:30:03;3.90;99.90
24802;DHT22;12898;50.520;12.152;2023-03-05T13:32:31;3.80;99.90
24802;DHT22;12898;50.520;12.152;2023-03-05T13:34:59;3.70;99.20
24802;DHT22;12898;50.520;12.152;2023-03-05T13:37:28;3.70;99.90
24802;DHT22;12898;50.520;12.152;2023-03-05T13:39:58;3.70;99.90
24802;DHT22;12898;50.520;12.152;2023-03-05T13:42:45;3.80;99.90
24802;DHT22;12898;50.520;12.152;2023-03-05T13:45:29;3.80;99.90
24802;DHT22;12898;50.520;12.152;2023-03-05T13:48:01;3.90;99.60
24802;DHT22;12898;50.520;12.152;2023-03-05T13:50:30;3.80;99.90
24802;DHT22;12898;50.520;12.152;2023-03-05T13:53:14;4.00;99.60
24802;DHT22;12898;50.520;12.152;2023-03-05T13:55:52;4.20;99.90
24802;DHT22;12898;50.520;12.152;2023-03-05T13:58:41;4.30;99.90
24802;DHT22;12898;50.520;12.152;2023-03-05T14:01:30;4.50;98.80
24802;DHT22;12898;50.520;12.152;2023-03-05T14:04:15;4.50;96.70
24802;DHT22;12898;50.520;12.152;2023-03-05T14:09:23;4.30;98.40
24802;DHT22;12898;50.520;12.152;2023-03-05T14:11:53;4.30;98.80
24802;DHT22;12898;50.520;12.152;2023-03-05T14:14:21;4.20;99.30
24802;DHT22;12898;50.520;12.152;2023-03-05T14:16:47;4.00;99.90
24802;DHT22;12898;50.520;12.152;2023-03-05T14:19:35;4.00;99.90
24802;DHT22;12898;50.520;12.152;2023-03-05T14:22:04;4.10;99.90
24802;DHT22;12898;50.520;12.152;2023-03-05T14:24:30;4.10;99.90
24802;DHT22;12898;50.520;12.152;2023-03-05T14:26:59;4.20;99.80
24802;DHT22;12898;50.520;12.152;2023-03-05T14:29:30;4.20;99.50
24802;DHT22;12898;50.520;12.152;2023-03-05T14:32:03;4.20;99.90
24802;DHT22;12898;50.520;12.152;2023-03-05T14:34:39;4.20;98.60
24802;DHT22;12898;50.520;12.152;2023-03-05T14:45:33;3.90;97.40
24802;DHT22;12898;50.520;12.152;2023-03-05T14:48:02;3.80;99.70
24802;DHT22;12898;50.520;12.152;2023-03-05T14:50:35;3.80;98.80
24802;DHT22;12898;50.520;12.152;2023-03-05T14:53:30;3.70;98.90
24802;DHT22;12898;50.520;12.152;2023-03-05T14:56:01;3.60;98.80
24802;DHT22;12898;50.520;12.152;2023-03-05T14:58:29;3.50;99.90
24802;DHT22;12898;50.520;12.152;2023-03-05T15:00:57;3.40;99.90
24802;DHT22;12898;50.520;12.152;2023-03-05T15:03:23;3.30;99.90
24802;DHT22;12898;50.520;12.152;2023-03-05T15:05:55;3.20;99.90
24802;DHT22;12898;50.520;12.152;2023-03-05T15:08:24;3.20;99.90
24802;DHT22;12898;50.520;12.152;2023-03-05T15:10:51;3.20;99.90
24802;DHT22;12898;50.520;12.152;2023-03-05T15:13:18;3.10;99.90
24802;DHT22;12898;50.520;12.152;2023-03-05T15:15:45;3.10;99.90
24802;DHT22;12898;50.520;12.152;2023-03-05T15:18:14;3.10;99.90
24802;DHT22;12898;50.520;12.152;2023-03-05T15:20:41;3.00;99.90
24802;DHT22;12898;50.520;12.152;2023-03-05T15:23:07;3.00;99.90
24802;DHT22;12898;50.520;12.152;2023-03-05T15:25:33;3.00;99.90
24802;DHT22;12898;50.520;12.152;2023-03-05T15:27:59;3.00;99.90
24802;DHT22;12898;50.520;12.152;2023-03-05T15:30:31;3.00;99.90
24802;DHT22;12898;50.520;12.152;2023-03-05T15:33:04;3.00;99.90
24802;DHT22;12898;50.520;12.152;2023-03-05T15:35:31;2.90;99.90
24802;DHT22;12898;50.520;12.152;2023-03-05T15:37:56;2.90;99.90
24802;DHT22;12898;50.520;12.152;2023-03-05T15:40:23;2.80;99.90
24802;DHT22;12898;50.520;12.152;2023-03-05T15:42:49;2.80;99.90
24802;DHT22;12898;50.520;12.152;2023-03-05T15:45:15;2.70;99.90
24802;DHT22;12898;50.520;12.152;2023-03-05T15:47:41;2.60;99.90
24802;DHT22;12898;50.520;12.152;2023-03-05T15:50:07;2.40;99.90
24802;DHT22;12898;50.520;12.152;2023-03-05T15:52:33;2.30;99.90
24802;DHT22;12898;50.520;12.152;2023-03-05T15:55:00;2.20;99.90
24802;DHT22;12898;50.520;12.152;2023-03-05T15:57:27;2.20;99.90
24802;DHT22;12898;50.520;12.152;2023-03-05T15:59:53;2.20;99.90
24802;DHT22;12898;50.520;12.152;2023-03-05T16:02:19;2.10;99.90
24802;DHT22;12898;50.520;12.152;2023-03-05T16:04:45;2.10;99.90
24802;DHT22;12898;50.520;12.152;2023-03-05T16:07:12;2.10;99.90
24802;DHT22;12898;50.520;12.152;2023-03-05T16:09:43;2.10;99.90
24802;DHT22;12898;50.520;12.152;2023-03-05T16:12:14;2.10;99.90
24802;DHT22;12898;50.520;12.152;2023-03-05T16:14:42;2.00;99.90
24802;DHT22;12898;50.520;12.152;2023-03-05T16:17:08;2.00;99.90
24802;DHT22;12898;50.520;12.152;2023-03-05T16:19:37;2.00;99.90
24802;DHT22;12898;50.520;12.152;2023-03-05T16:22:04;2.00;99.90
24802;DHT22;12898;50.520;12.152;2023-03-05T16:24:30;2.00;99.90
24802;DHT22;12898;50.520;12.152;2023-03-05T16:26:57;1.90;99.90
24802;DHT22;12898;50.520;12.152;2023-03-05T16:29:23;1.90;99.90
24802;DHT22;12898;50.520;12.152;2023-03-05T16:31:50;1.90;99.90
24802;DHT22;12898;50.520;12.152;2023-03-05T16:34:15;1.90;99.90
24802;DHT22;12898;50.520;12.152;2023-03-05T16:36:47;1.80;99.90
24802;DHT22;12898;50.520;12.152;2023-03-05T16:39:17;1.80;99.90
24802;DHT22;12898;50.520;12.152;2023-03-05T16:41:44;1.80;99.90
24802;DHT22;12898;50.520;12.152;2023-03-05T16:44:10;1.70;99.90
24802;DHT22;12898;50.520;12.152;2023-03-05T16:46:36;1.70;99.90
24802;DHT22;12898;50.520;12.152;2023-03-05T16:49:03;1.70;99.90
24802;DHT22;12898;50.520;12.152;2023-03-05T16:51:29;1.70;99.90
24802;DHT22;12898;50.520;12.152;2023-03-05T16:53:55;1.60;99.90
24802;DHT22;12898;50.520;12.152;2023-03-05T16:56:21;1.60;99.90
24802;DHT22;12898;50.520;12.152;2023-03-05T16:58:47;1.60;99.90
24802;DHT22;12898;50.520;12.152;2023-03-05T17:01:18;1.50;99.90
24802;DHT22;12898;50.520;12.152;2023-03-05T17:03:48;1.50;99.90
24802;DHT22;12898;50.520;12.152;2023-03-05T17:06:26;1.50;99.90
24802;DHT22;12898;50.520;12.152;2023-03-05T17:08:53;1.50;99.90
24802;DHT22;12898;50.520;12.152;2023-03-05T17:11:20;1.50;99.90
24802;DHT22;12898;50.520;12.152;2023-03-05T17:13:46;1.40;99.90